sensor_id;sensor_type;location;lat;lon;timestamp;P1;durP1;ratioP1;P2;durP2;ratioP2
15706;SDS011;7953;54.302;10.128;2023-04-24T00:00:13;5.77;;;5.00;;
15706;SDS011;7953;54.302;10.128;2023-04-24T00:02:41;7.80;;;5.80;;
15706;SDS011;7953;54.302;10.128;2023-04-24T00:05:11;6.20;;;5.67;;
15706;SDS011;7953;54.302;10.128;2023-04-24T00:07:38;6.33;;;5.73;;
15706;SDS011;7953;54.302;10.128;2023-04-24T00:10:06;11.00;;;5.40;;
15706;SDS011;7953;54.302;10.128;2023-04-24T00:12:34;5.67;;;5.17;;
15706;SDS011;7953;54.302;10.128;2023-04-24T00:15:01;5.97;;;5.37;;
15706;SDS011;7953;54.302;10.128;2023-04-24T00:17:28;6.47;;;5.67;;
15706;SDS011;7953;54.302;10.128;2023-04-24T00:19:55;6.30;;;5.70;;
15706;SDS011;7953;54.302;10.128;2023-04-24T00:22:25;6.23;;;5.47;;
15706;SDS011;7953;54.302;10.128;2023-04-24T00:24:53;7.13;;;5.03;;
15706;SDS011;7953;54.302;10.128;2023-04-24T00:27:20;6.70;;;6.00;;
15706;SDS011;7953;54.302;10.128;2023-04-24T00:29:47;6.27;;;5.50;;
15706;SDS011;7953;54.302;10.128;2023-04-24T00:32:14;6.10;;;5.33;;
15706;SDS011;7953;54.302;10.128;2023-04-24T00:34:42;6.40;;;5.80;;
15706;SDS011;7953;54.302;10.128;2023-04-24T00:37:09;6.37;;;5.80;;
15706;SDS011;7953;54.302;10.128;2023-04-24T00:39:37;6.23;;;5.63;;
15706;SDS011;7953;54.302;10.128;2023-04-24T00:42:04;6.97;;;6.27;;
15706;SDS011;7953;54.302;10.128;2023-04-24T00:44:31;7.53;;;6.40;;
15706;SDS011;7953;54.302;10.128;2023-04-24T00:46:59;7.30;;;6.60;;
15706;SDS011;7953;54.302;10.128;2023-04-24T00:49:26;7.87;;;6.80;;
15706;SDS011;7953;54.302;10.128;2023-04-24T00:51:53;7.23;;;6.53;;
15706;SDS011;7953;54.302;10.128;2023-04-24T00:54:21;7.70;;;6.90;;
15706;SDS011;7953;54.302;10.128;2023-04-24T00:56:50;7.27;;;6.23;;
15706;SDS011;7953;54.302;10.128;2023-04-24T00:59:17;7.53;;;6.63;;
15706;SDS011;7953;54.302;10.128;2023-04-24T01:01:44;7.63;;;6.67;;
15706;SDS011;7953;54.302;10.128;2023-04-24T01:04:12;6.70;;;6.00;;
15706;SDS011;7953;54.302;10.128;2023-04-24T01:06:40;6.87;;;6.20;;
15706;SDS011;7953;54.302;10.128;2023-04-24T01:09:10;8.23;;;6.43;;
15706;SDS011;7953;54.302;10.128;2023-04-24T01:11:38;7.20;;;6.50;;
15706;SDS011;7953;54.302;10.128;2023-04-24T01:14:09;7.10;;;6.40;;
15706;SDS011;7953;54.302;10.128;2023-04-24T01:16:36;7.13;;;6.30;;
15706;SDS011;7953;54.302;10.128;2023-04-24T01:19:03;6.63;;;6.03;;
15706;SDS011;7953;54.302;10.128;2023-04-24T01:21:30;7.43;;;6.50;;
15706;SDS011;7953;54.302;10.128;2023-04-24T01:24:04;7.30;;;5.63;;
15706;SDS011;7953;54.302;10.128;2023-04-24T01:26:32;6.47;;;5.87;;
15706;SDS011;7953;54.302;10.128;2023-04-24T01:28:59;6.23;;;5.63;;
15706;SDS011;7953;54.302;10.128;2023-04-24T01:31:26;6.50;;;5.90;;
15706;SDS011;7953;54.302;10.128;2023-04-24T01:33:54;6.97;;;5.67;;
15706;SDS011;7953;54.302;10.128;2023-04-24T01:36:22;6.27;;;5.67;;
15706;SDS011;7953;54.302;10.128;2023-04-24T01:38:50;8.63;;;6.83;;
15706;SDS011;7953;54.302;10.128;2023-04-24T01:41:18;7.13;;;5.80;;
15706;SDS011;7953;54.302;10.128;2023-04-24T01:43:46;6.10;;;5.50;;
15706;SDS011;7953;54.302;10.128;2023-04-24T01:46:14;6.70;;;6.10;;
15706;SDS011;7953;54.302;10.128;2023-04-24T01:48:41;6.30;;;5.57;;
15706;SDS011;7953;54.302;10.128;2023-04-24T01:51:08;6.20;;;5.60;;
15706;SDS011;7953;54.302;10.128;2023-04-24T01:53:35;6.43;;;5.83;;
15706;SDS011;7953;54.302;10.128;2023-04-24T01:56:02;6.50;;;5.90;;
15706;SDS011;7953;54.302;10.128;2023-04-24T01:58:31;8.27;;;5.57;;
15706;SDS011;7953;54.302;10.128;2023-04-24T02:00:58;6.33;;;5.60;;
15706;SDS011;7953;54.302;10.128;2023-04-24T02:03:26;6.17;;;5.67;;
15706;SDS011;7953;54.302;10.128;2023-04-24T02:05:53;6.33;;;5.73;;
15706;SDS011;7953;54.302;10.128;2023-04-24T02:08:20;7.40;;;6.00;;
15706;SDS011;7953;54.302;10.128;2023-04-24T02:10:46;7.17;;;6.47;;
15706;SDS011;7953;54.302;10.128;2023-04-24T02:13:13;6.37;;;5.40;;
15706;SDS011;7953;54.302;10.128;2023-04-24T02:15:41;5.53;;;5.03;;
15706;SDS011;7953;54.302;10.128;2023-04-24T02:18:08;5.90;;;5.40;;
15706;SDS011;7953;54.302;10.128;2023-04-24T02:20:36;6.00;;;5.40;;
15706;SDS011;7953;54.302;10.128;2023-04-24T02:23:03;8.00;;;5.63;;
15706;SDS011;7953;54.302;10.128;2023-04-24T02:25:30;6.37;;;5.70;;
15706;SDS011;7953;54.302;10.128;2023-04-24T02:27:56;7.17;;;6.43;;
15706;SDS011;7953;54.302;10.128;2023-04-24T02:30:23;6.87;;;6.20;;
15706;SDS011;7953;54.302;10.128;2023-04-24T02:32:52;7.00;;;6.30;;
15706;SDS011;7953;54.302;10.128;2023-04-24T02:35:18;8.03;;;7.23;;
15706;SDS011;7953;54.302;10.128;2023-04-24T02:37:45;7.77;;;6.90;;
15706;SDS011;7953;54.302;10.128;2023-04-24T02:40:12;7.40;;;6.70;;
15706;SDS011;7953;54.302;10.128;2023-04-24T02:42:39;8.03;;;7.23;;
15706;SDS011;7953;54.302;10.128;2023-04-24T02:45:06;9.07;;;7.13;;
15706;SDS011;7953;54.302;10.128;2023-04-24T02:47:34;8.00;;;7.20;;
15706;SDS011;7953;54.302;10.128;2023-04-24T02:50:02;8.47;;;7.53;;
15706;SDS011;7953;54.302;10.128;2023-04-24T02:52:30;9.17;;;8.20;;
15706;SDS011;7953;54.302;10.128;2023-04-24T02:54:57;8.57;;;7.77;;
15706;SDS011;7953;54.302;10.128;2023-04-24T02:57:23;9.77;;;7.37;;
15706;SDS011;7953;54.302;10.128;2023-04-24T02:59:50;10.57;;;7.43;;
15706;SDS011;7953;54.302;10.128;2023-04-24T03:02:17;8.53;;;7.03;;
15706;SDS011;7953;54.302;10.128;2023-04-24T03:04:45;8.53;;;7.63;;
15706;SDS011;7953;54.302;10.128;2023-04-24T03:07:14;7.50;;;6.80;;
15706;SDS011;7953;54.302;10.128;2023-04-24T03:09:41;8.40;;;7.60;;
15706;SDS011;7953;54.302;10.128;2023-04-24T03:12:08;7.60;;;6.90;;
15706;SDS011;7953;54.302;10.128;2023-04-24T03:14:35;8.33;;;7.43;;
15706;SDS011;7953;54.302;10.128;2023-04-24T03:17:02;7.73;;;6.93;;
15706;SDS011;7953;54.302;10.128;2023-04-24T03:19:29;7.70;;;7.00;;
15706;SDS011;7953;54.302;10.128;2023-04-24T03:21:56;8.30;;;7.37;;
15706;SDS011;7953;54.302;10.128;2023-04-24T03:24:24;8.03;;;7.33;;
15706;SDS011;7953;54.302;10.128;2023-04-24T03:26:53;7.30;;;6.60;;
15706;SDS011;7953;54.302;10.128;2023-04-24T03:29:21;7.63;;;6.83;;
15706;SDS011;7953;54.302;10.128;2023-04-24T03:31:48;7.27;;;6.67;;
15706;SDS011;7953;54.302;10.128;2023-04-24T03:34:15;7.10;;;6.50;;
15706;SDS011;7953;54.302;10.128;2023-04-24T03:36:42;6.97;;;6.23;;
15706;SDS011;7953;54.302;10.128;2023-04-24T03:39:09;8.33;;;6.60;;
15706;SDS011;7953;54.302;10.128;2023-04-24T03:41:37;8.50;;;6.17;;
15706;SDS011;7953;54.302;10.128;2023-04-24T03:44:04;6.23;;;5.63;;
15706;SDS011;7953;54.302;10.128;2023-04-24T03:46:31;5.73;;;4.87;;
15706;SDS011;7953;54.302;10.128;2023-04-24T03:48:58;5.87;;;5.30;;
15706;SDS011;7953;54.302;10.128;2023-04-24T03:51:25;5.70;;;5.10;;
15706;SDS011;7953;54.302;10.128;2023-04-24T03:53:52;6.30;;;5.70;;
15706;SDS011;7953;54.302;10.128;2023-04-24T03:56:19;5.50;;;5.00;;
15706;SDS011;7953;54.302;10.128;2023-04-24T03:58:48;5.90;;;5.33;;
15706;SDS011;7953;54.302;10.128;2023-04-24T04:01:14;6.23;;;5.63;;
15706;SDS011;7953;54.302;10.128;2023-04-24T04:03:42;5.60;;;5.10;;
15706;SDS011;7953;54.302;10.128;2023-04-24T04:06:08;5.50;;;5.00;;
15706;SDS011;7953;54.302;10.128;2023-04-24T04:08:38;5.93;;;5.43;;
15706;SDS011;7953;54.302;10.128;2023-04-24T04:11:04;5.37;;;4.87;;
15706;SDS011;7953;54.302;10.128;2023-04-24T04:13:31;6.13;;;5.53;;
15706;SDS011;7953;54.302;10.128;2023-04-24T04:15:59;6.50;;;5.23;;
15706;SDS011;7953;54.302;10.128;2023-04-24T04:18:26;5.93;;;5.43;;
15706;SDS011;7953;54.302;10.128;2023-04-24T04:20:53;5.97;;;5.30;;
15706;SDS011;7953;54.302;10.128;2023-04-24T04:23:21;7.20;;;5.43;;
15706;SDS011;7953;54.302;10.128;2023-04-24T04:25:48;5.10;;;4.70;;
15706;SDS011;7953;54.302;10.128;2023-04-24T04:28:16;5.60;;;5.00;;
15706;SDS011;7953;54.302;10.128;2023-04-24T04:30:44;4.77;;;4.37;;
15706;SDS011;7953;54.302;10.128;2023-04-24T04:33:13;5.20;;;4.80;;
15706;SDS011;7953;54.302;10.128;2023-04-24T04:35:41;5.00;;;4.50;;
15706;SDS011;7953;54.302;10.128;2023-04-24T04:38:08;4.63;;;4.23;;
15706;SDS011;7953;54.302;10.128;2023-04-24T04:40:35;4.13;;;3.73;;
15706;SDS011;7953;54.302;10.128;2023-04-24T04:43:02;3.97;;;3.67;;
15706;SDS011;7953;54.302;10.128;2023-04-24T04:45:29;3.90;;;3.60;;
15706;SDS011;7953;54.302;10.128;2023-04-24T04:47:57;3.93;;;3.57;;
15706;SDS011;7953;54.302;10.128;2023-04-24T04:50:27;3.40;;;3.10;;
15706;SDS011;7953;54.302;10.128;2023-04-24T04:52:54;4.87;;;3.73;;
15706;SDS011;7953;54.302;10.128;2023-04-24T04:55:20;3.73;;;3.37;;
15706;SDS011;7953;54.302;10.128;2023-04-24T04:57:47;3.47;;;3.10;;
15706;SDS011;7953;54.302;10.128;2023-04-24T05:00:14;3.23;;;2.93;;
15706;SDS011;7953;54.302;10.128;2023-04-24T05:02:41;2.50;;;2.33;;
15706;SDS011;7953;54.302;10.128;2023-04-24T05:05:08;3.53;;;2.97;;
15706;SDS011;7953;54.302;10.128;2023-04-24T05:07:37;3.20;;;2.90;;
15706;SDS011;7953;54.302;10.128;2023-04-24T05:10:04;2.60;;;2.40;;
15706;SDS011;7953;54.302;10.128;2023-04-24T05:12:32;2.83;;;2.50;;
15706;SDS011;7953;54.302;10.128;2023-04-24T05:14:58;3.70;;;2.87;;
15706;SDS011;7953;54.302;10.128;2023-04-24T05:17:25;2.90;;;2.70;;
15706;SDS011;7953;54.302;10.128;2023-04-24T05:19:52;2.97;;;2.73;;
15706;SDS011;7953;54.302;10.128;2023-04-24T05:22:19;3.43;;;3.10;;
15706;SDS011;7953;54.302;10.128;2023-04-24T05:24:48;4.03;;;3.63;;
15706;SDS011;7953;54.302;10.128;2023-04-24T05:27:15;3.23;;;2.93;;
15706;SDS011;7953;54.302;10.128;2023-04-24T05:29:42;3.00;;;2.80;;
15706;SDS011;7953;54.302;10.128;2023-04-24T05:32:08;4.40;;;2.97;;
15706;SDS011;7953;54.302;10.128;2023-04-24T05:34:35;3.17;;;2.87;;
15706;SDS011;7953;54.302;10.128;2023-04-24T05:37:02;3.30;;;3.10;;
15706;SDS011;7953;54.302;10.128;2023-04-24T05:39:33;4.00;;;2.60;;
15706;SDS011;7953;54.302;10.128;2023-04-24T05:42:01;2.93;;;2.73;;
15706;SDS011;7953;54.302;10.128;2023-04-24T05:44:29;3.83;;;3.07;;
15706;SDS011;7953;54.302;10.128;2023-04-24T05:46:56;3.07;;;2.77;;
15706;SDS011;7953;54.302;10.128;2023-04-24T05:49:23;4.03;;;2.60;;
15706;SDS011;7953;54.302;10.128;2023-04-24T05:51:50;3.40;;;3.10;;
15706;SDS011;7953;54.302;10.128;2023-04-24T05:54:17;3.57;;;3.27;;
15706;SDS011;7953;54.302;10.128;2023-04-24T05:56:44;3.03;;;2.83;;
15706;SDS011;7953;54.302;10.128;2023-04-24T05:59:12;3.37;;;3.07;;
15706;SDS011;7953;54.302;10.128;2023-04-24T06:01:39;3.80;;;3.40;;
15706;SDS011;7953;54.302;10.128;2023-04-24T06:04:06;3.40;;;3.20;;
15706;SDS011;7953;54.302;10.128;2023-04-24T06:06:34;3.27;;;2.97;;
15706;SDS011;7953;54.302;10.128;2023-04-24T06:09:01;2.63;;;2.37;;
15706;SDS011;7953;54.302;10.128;2023-04-24T06:11:28;3.13;;;2.60;;
15706;SDS011;7953;54.302;10.128;2023-04-24T06:13:55;3.13;;;2.90;;
15706;SDS011;7953;54.302;10.128;2023-04-24T06:16:24;2.70;;;2.50;;
15706;SDS011;7953;54.302;10.128;2023-04-24T06:18:50;3.40;;;3.00;;
15706;SDS011;7953;54.302;10.128;2023-04-24T06:21:17;2.83;;;2.60;;
15706;SDS011;7953;54.302;10.128;2023-04-24T06:23:44;2.70;;;2.43;;
15706;SDS011;7953;54.302;10.128;2023-04-24T06:26:19;2.70;;;2.50;;
15706;SDS011;7953;54.302;10.128;2023-04-24T06:28:46;3.13;;;2.73;;
15706;SDS011;7953;54.302;10.128;2023-04-24T06:31:12;2.60;;;2.40;;
15706;SDS011;7953;54.302;10.128;2023-04-24T06:33:41;2.63;;;2.13;;
15706;SDS011;7953;54.302;10.128;2023-04-24T06:36:08;3.47;;;2.90;;
15706;SDS011;7953;54.302;10.128;2023-04-24T06:38:35;2.63;;;2.43;;
15706;SDS011;7953;54.302;10.128;2023-04-24T06:41:02;3.03;;;2.40;;
15706;SDS011;7953;54.302;10.128;2023-04-24T06:43:30;2.43;;;2.23;;
15706;SDS011;7953;54.302;10.128;2023-04-24T06:45:57;3.57;;;3.27;;
15706;SDS011;7953;54.302;10.128;2023-04-24T06:48:23;3.00;;;2.73;;
15706;SDS011;7953;54.302;10.128;2023-04-24T06:50:52;2.97;;;2.77;;
15706;SDS011;7953;54.302;10.128;2023-04-24T06:53:19;3.27;;;3.07;;
15706;SDS011;7953;54.302;10.128;2023-04-24T06:55:46;2.83;;;2.63;;
15706;SDS011;7953;54.302;10.128;2023-04-24T06:58:13;3.33;;;2.40;;
15706;SDS011;7953;54.302;10.128;2023-04-24T07:00:41;3.67;;;2.50;;
15706;SDS011;7953;54.302;10.128;2023-04-24T07:03:07;2.60;;;2.40;;
15706;SDS011;7953;54.302;10.128;2023-04-24T07:05:34;4.23;;;2.73;;
15706;SDS011;7953;54.302;10.128;2023-04-24T07:08:04;2.80;;;2.23;;
15706;SDS011;7953;54.302;10.128;2023-04-24T07:10:31;4.47;;;2.47;;
15706;SDS011;7953;54.302;10.128;2023-04-24T07:12:59;3.00;;;2.77;;
15706;SDS011;7953;54.302;10.128;2023-04-24T07:15:26;2.77;;;2.57;;
15706;SDS011;7953;54.302;10.128;2023-04-24T07:17:53;2.90;;;2.47;;
15706;SDS011;7953;54.302;10.128;2023-04-24T07:20:20;2.97;;;2.50;;
15706;SDS011;7953;54.302;10.128;2023-04-24T07:22:47;2.90;;;2.70;;
15706;SDS011;7953;54.302;10.128;2023-04-24T07:25:15;2.53;;;2.33;;
15706;SDS011;7953;54.302;10.128;2023-04-24T07:27:42;2.90;;;2.53;;
15706;SDS011;7953;54.302;10.128;2023-04-24T07:30:10;2.90;;;2.70;;
15706;SDS011;7953;54.302;10.128;2023-04-24T07:32:37;2.43;;;2.23;;
15706;SDS011;7953;54.302;10.128;2023-04-24T07:35:04;2.63;;;2.43;;
15706;SDS011;7953;54.302;10.128;2023-04-24T07:37:31;3.80;;;2.53;;
15706;SDS011;7953;54.302;10.128;2023-04-24T07:39:58;3.13;;;2.53;;
15706;SDS011;7953;54.302;10.128;2023-04-24T07:42:27;3.47;;;2.37;;
15706;SDS011;7953;54.302;10.128;2023-04-24T07:44:55;2.33;;;2.13;;
15706;SDS011;7953;54.302;10.128;2023-04-24T07:47:22;2.47;;;2.27;;
15706;SDS011;7953;54.302;10.128;2023-04-24T07:49:49;2.63;;;2.30;;
15706;SDS011;7953;54.302;10.128;2023-04-24T07:52:16;3.13;;;2.53;;
15706;SDS011;7953;54.302;10.128;2023-04-24T07:54:43;2.77;;;2.37;;
15706;SDS011;7953;54.302;10.128;2023-04-24T07:57:10;2.40;;;2.20;;
15706;SDS011;7953;54.302;10.128;2023-04-24T07:59:38;2.80;;;2.60;;
15706;SDS011;7953;54.302;10.128;2023-04-24T08:02:05;3.03;;;2.60;;
15706;SDS011;7953;54.302;10.128;2023-04-24T08:04:32;2.30;;;2.20;;
15706;SDS011;7953;54.302;10.128;2023-04-24T08:06:59;2.60;;;2.40;;
15706;SDS011;7953;54.302;10.128;2023-04-24T08:09:26;5.87;;;2.50;;
15706;SDS011;7953;54.302;10.128;2023-04-24T08:11:53;2.77;;;2.57;;
15706;SDS011;7953;54.302;10.128;2023-04-24T08:14:20;3.57;;;2.10;;
15706;SDS011;7953;54.302;10.128;2023-04-24T08:16:48;2.67;;;2.47;;
15706;SDS011;7953;54.302;10.128;2023-04-24T08:19:15;2.33;;;2.13;;
15706;SDS011;7953;54.302;10.128;2023-04-24T08:21:41;2.97;;;2.77;;
15706;SDS011;7953;54.302;10.128;2023-04-24T08:24:08;3.33;;;2.57;;
15706;SDS011;7953;54.302;10.128;2023-04-24T08:26:35;3.20;;;2.90;;
15706;SDS011;7953;54.302;10.128;2023-04-24T08:29:02;3.00;;;2.73;;
15706;SDS011;7953;54.302;10.128;2023-04-24T08:31:29;4.47;;;2.47;;
15706;SDS011;7953;54.302;10.128;2023-04-24T08:33:57;3.00;;;2.80;;
15706;SDS011;7953;54.302;10.128;2023-04-24T08:36:25;3.43;;;3.13;;
15706;SDS011;7953;54.302;10.128;2023-04-24T08:38:52;3.80;;;3.10;;
15706;SDS011;7953;54.302;10.128;2023-04-24T08:41:19;3.90;;;3.60;;
15706;SDS011;7953;54.302;10.128;2023-04-24T08:43:46;6.07;;;3.70;;
15706;SDS011;7953;54.302;10.128;2023-04-24T08:46:13;3.90;;;3.60;;
15706;SDS011;7953;54.302;10.128;2023-04-24T08:48:42;3.90;;;3.60;;
15706;SDS011;7953;54.302;10.128;2023-04-24T08:51:10;4.17;;;3.80;;
15706;SDS011;7953;54.302;10.128;2023-04-24T08:53:38;3.53;;;3.33;;
15706;SDS011;7953;54.302;10.128;2023-04-24T08:56:04;3.73;;;3.43;;
15706;SDS011;7953;54.302;10.128;2023-04-24T08:58:32;4.23;;;3.70;;
15706;SDS011;7953;54.302;10.128;2023-04-24T09:00:59;4.30;;;3.90;;
15706;SDS011;7953;54.302;10.128;2023-04-24T09:03:27;4.37;;;4.03;;
15706;SDS011;7953;54.302;10.128;2023-04-24T09:05:55;4.60;;;4.20;;
15706;SDS011;7953;54.302;10.128;2023-04-24T09:08:25;4.00;;;3.70;;
15706;SDS011;7953;54.302;10.128;2023-04-24T09:10:54;6.33;;;5.67;;
15706;SDS011;7953;54.302;10.128;2023-04-24T09:13:23;4.80;;;4.40;;
15706;SDS011;7953;54.302;10.128;2023-04-24T09:15:50;6.33;;;5.10;;
15706;SDS011;7953;54.302;10.128;2023-04-24T09:18:18;7.23;;;5.37;;
15706;SDS011;7953;54.302;10.128;2023-04-24T09:23:35;4.73;;;4.30;;
15706;SDS011;7953;54.302;10.128;2023-04-24T09:26:02;4.10;;;3.70;;
15706;SDS011;7953;54.302;10.128;2023-04-24T09:28:31;4.23;;;3.83;;
15706;SDS011;7953;54.302;10.128;2023-04-24T09:31:04;4.23;;;3.93;;
15706;SDS011;7953;54.302;10.128;2023-04-24T09:33:32;6.57;;;5.17;;
15706;SDS011;7953;54.302;10.128;2023-04-24T09:35:59;6.70;;;6.10;;
15706;SDS011;7953;54.302;10.128;2023-04-24T09:38:30;7.10;;;6.40;;
15706;SDS011;7953;54.302;10.128;2023-04-24T09:41:00;6.67;;;6.07;;
15706;SDS011;7953;54.302;10.128;2023-04-24T09:43:28;6.33;;;5.73;;
15706;SDS011;7953;54.302;10.128;2023-04-24T09:45:55;8.30;;;5.70;;
15706;SDS011;7953;54.302;10.128;2023-04-24T09:48:29;6.07;;;5.57;;
15706;SDS011;7953;54.302;10.128;2023-04-24T09:50:57;6.27;;;5.67;;
15706;SDS011;7953;54.302;10.128;2023-04-24T09:53:24;6.17;;;5.03;;
15706;SDS011;7953;54.302;10.128;2023-04-24T09:55:51;6.13;;;5.53;;
15706;SDS011;7953;54.302;10.128;2023-04-24T09:58:20;5.67;;;5.17;;
15706;SDS011;7953;54.302;10.128;2023-04-24T10:00:53;8.13;;;5.40;;
15706;SDS011;7953;54.302;10.128;2023-04-24T10:03:22;6.20;;;5.30;;
15706;SDS011;7953;54.302;10.128;2023-04-24T10:05:51;5.33;;;4.83;;
15706;SDS011;7953;54.302;10.128;2023-04-24T10:08:18;6.00;;;5.47;;
15706;SDS011;7953;54.302;10.128;2023-04-24T10:10:46;5.93;;;5.43;;
15706;SDS011;7953;54.302;10.128;2023-04-24T10:13:13;9.37;;;6.20;;
15706;SDS011;7953;54.302;10.128;2023-04-24T10:15:42;5.80;;;5.07;;
15706;SDS011;7953;54.302;10.128;2023-04-24T10:18:10;6.17;;;5.60;;
15706;SDS011;7953;54.302;10.128;2023-04-24T10:20:38;5.53;;;5.07;;
15706;SDS011;7953;54.302;10.128;2023-04-24T10:23:06;5.97;;;5.47;;
15706;SDS011;7953;54.302;10.128;2023-04-24T10:25:34;5.93;;;5.43;;
15706;SDS011;7953;54.302;10.128;2023-04-24T10:28:02;7.27;;;5.30;;
15706;SDS011;7953;54.302;10.128;2023-04-24T10:30:30;5.47;;;4.97;;
15706;SDS011;7953;54.302;10.128;2023-04-24T10:33:01;6.13;;;5.63;;
15706;SDS011;7953;54.302;10.128;2023-04-24T10:35:30;5.87;;;5.37;;
15706;SDS011;7953;54.302;10.128;2023-04-24T10:37:58;6.60;;;6.00;;
15706;SDS011;7953;54.302;10.128;2023-04-24T10:40:30;6.97;;;6.30;;
15706;SDS011;7953;54.302;10.128;2023-04-24T10:42:58;6.80;;;5.90;;
15706;SDS011;7953;54.302;10.128;2023-04-24T10:45:28;6.13;;;5.43;;
15706;SDS011;7953;54.302;10.128;2023-04-24T10:47:58;7.20;;;6.50;;
15706;SDS011;7953;54.302;10.128;2023-04-24T10:50:28;5.83;;;5.33;;
15706;SDS011;7953;54.302;10.128;2023-04-24T10:53:04;6.10;;;5.57;;
15706;SDS011;7953;54.302;10.128;2023-04-24T10:55:40;5.90;;;5.40;;
15706;SDS011;7953;54.302;10.128;2023-04-24T10:58:09;6.23;;;5.73;;
15706;SDS011;7953;54.302;10.128;2023-04-24T11:00:36;6.23;;;5.70;;
15706;SDS011;7953;54.302;10.128;2023-04-24T11:03:05;7.50;;;6.40;;
15706;SDS011;7953;54.302;10.128;2023-04-24T11:08:38;6.90;;;6.30;;
15706;SDS011;7953;54.302;10.128;2023-04-24T11:11:10;6.80;;;6.10;;
15706;SDS011;7953;54.302;10.128;2023-04-24T11:16:28;6.83;;;6.20;;
15706;SDS011;7953;54.302;10.128;2023-04-24T11:19:00;9.50;;;7.30;;
15706;SDS011;7953;54.302;10.128;2023-04-24T11:21:32;7.00;;;6.40;;
15706;SDS011;7953;54.302;10.128;2023-04-24T11:24:22;7.53;;;6.93;;
15706;SDS011;7953;54.302;10.128;2023-04-24T11:27:07;7.67;;;6.97;;
15706;SDS011;7953;54.302;10.128;2023-04-24T11:29:39;8.60;;;7.83;;
15706;SDS011;7953;54.302;10.128;2023-04-24T11:32:19;7.70;;;7.10;;
15706;SDS011;7953;54.302;10.128;2023-04-24T11:34:51;7.60;;;7.00;;
15706;SDS011;7953;54.302;10.128;2023-04-24T11:37:21;7.43;;;6.73;;
15706;SDS011;7953;54.302;10.128;2023-04-24T11:39:50;10.07;;;6.47;;
15706;SDS011;7953;54.302;10.128;2023-04-24T11:42:18;7.83;;;7.13;;
15706;SDS011;7953;54.302;10.128;2023-04-24T11:44:45;8.30;;;7.50;;
15706;SDS011;7953;54.302;10.128;2023-04-24T11:47:13;6.97;;;6.20;;
15706;SDS011;7953;54.302;10.128;2023-04-24T11:49:40;7.20;;;6.60;;
15706;SDS011;7953;54.302;10.128;2023-04-24T11:52:07;7.73;;;7.03;;
15706;SDS011;7953;54.302;10.128;2023-04-24T11:54:37;9.03;;;8.00;;
15706;SDS011;7953;54.302;10.128;2023-04-24T11:57:04;9.13;;;8.23;;
15706;SDS011;7953;54.302;10.128;2023-04-24T11:59:35;8.87;;;8.07;;
15706;SDS011;7953;54.302;10.128;2023-04-24T12:02:02;9.20;;;8.17;;
15706;SDS011;7953;54.302;10.128;2023-04-24T12:04:38;10.17;;;8.03;;
15706;SDS011;7953;54.302;10.128;2023-04-24T12:07:05;8.90;;;7.93;;
15706;SDS011;7953;54.302;10.128;2023-04-24T12:09:44;9.63;;;7.77;;
15706;SDS011;7953;54.302;10.128;2023-04-24T12:12:12;10.53;;;8.47;;
15706;SDS011;7953;54.302;10.128;2023-04-24T12:14:44;8.93;;;8.13;;
15706;SDS011;7953;54.302;10.128;2023-04-24T12:17:14;8.57;;;7.70;;
15706;SDS011;7953;54.302;10.128;2023-04-24T12:19:44;9.10;;;8.30;;
15706;SDS011;7953;54.302;10.128;2023-04-24T12:22:12;8.83;;;7.93;;
15706;SDS011;7953;54.302;10.128;2023-04-24T12:27:23;9.43;;;8.53;;
15706;SDS011;7953;54.302;10.128;2023-04-24T12:29:53;10.00;;;9.10;;
15706;SDS011;7953;54.302;10.128;2023-04-24T12:32:22;9.67;;;8.77;;
15706;SDS011;7953;54.302;10.128;2023-04-24T12:34:50;9.10;;;8.20;;
15706;SDS011;7953;54.302;10.128;2023-04-24T12:37:17;8.43;;;7.63;;
15706;SDS011;7953;54.302;10.128;2023-04-24T12:39:48;8.80;;;8.00;;
15706;SDS011;7953;54.302;10.128;2023-04-24T12:42:30;10.83;;;9.83;;
15706;SDS011;7953;54.302;10.128;2023-04-24T12:44:58;8.47;;;7.57;;
15706;SDS011;7953;54.302;10.128;2023-04-24T12:47:26;8.47;;;7.63;;
15706;SDS011;7953;54.302;10.128;2023-04-24T12:49:53;9.70;;;8.07;;
15706;SDS011;7953;54.302;10.128;2023-04-24T12:52:20;11.53;;;10.43;;
15706;SDS011;7953;54.302;10.128;2023-04-24T12:54:48;9.37;;;8.47;;
15706;SDS011;7953;54.302;10.128;2023-04-24T12:57:17;8.87;;;7.97;;
15706;SDS011;7953;54.302;10.128;2023-04-24T12:59:44;9.23;;;8.20;;
15706;SDS011;7953;54.302;10.128;2023-04-24T13:02:11;8.43;;;7.63;;
15706;SDS011;7953;54.302;10.128;2023-04-24T13:04:38;8.70;;;7.67;;
15706;SDS011;7953;54.302;10.128;2023-04-24T13:07:05;9.03;;;8.07;;
15706;SDS011;7953;54.302;10.128;2023-04-24T13:09:34;9.40;;;8.50;;
15706;SDS011;7953;54.302;10.128;2023-04-24T13:12:01;10.80;;;9.63;;
15706;SDS011;7953;54.302;10.128;2023-04-24T13:14:31;10.87;;;9.87;;
15706;SDS011;7953;54.302;10.128;2023-04-24T13:16:58;11.77;;;10.57;;
15706;SDS011;7953;54.302;10.128;2023-04-24T13:19:25;12.47;;;10.83;;
15706;SDS011;7953;54.302;10.128;2023-04-24T13:21:53;12.03;;;10.80;;
15706;SDS011;7953;54.302;10.128;2023-04-24T13:24:22;11.77;;;10.17;;
15706;SDS011;7953;54.302;10.128;2023-04-24T13:26:50;12.17;;;10.83;;
15706;SDS011;7953;54.302;10.128;2023-04-24T13:29:17;15.30;;;11.87;;
15706;SDS011;7953;54.302;10.128;2023-04-24T13:31:45;14.03;;;11.37;;
15706;SDS011;7953;54.302;10.128;2023-04-24T13:34:12;12.67;;;11.33;;
15706;SDS011;7953;54.302;10.128;2023-04-24T13:36:39;12.80;;;11.40;;
15706;SDS011;7953;54.302;10.128;2023-04-24T13:39:06;15.10;;;10.53;;
15706;SDS011;7953;54.302;10.128;2023-04-24T13:41:33;11.10;;;9.80;;
15706;SDS011;7953;54.302;10.128;2023-04-24T13:44:01;10.77;;;9.73;;
15706;SDS011;7953;54.302;10.128;2023-04-24T13:46:28;10.93;;;9.83;;
15706;SDS011;7953;54.302;10.128;2023-04-24T13:48:56;11.17;;;9.87;;
15706;SDS011;7953;54.302;10.128;2023-04-24T13:51:25;15.40;;;11.77;;
15706;SDS011;7953;54.302;10.128;2023-04-24T13:53:52;12.27;;;9.97;;
15706;SDS011;7953;54.302;10.128;2023-04-24T13:56:20;12.60;;;10.63;;
15706;SDS011;7953;54.302;10.128;2023-04-24T13:58:47;11.63;;;10.53;;
15706;SDS011;7953;54.302;10.128;2023-04-24T14:01:14;10.57;;;9.50;;
15706;SDS011;7953;54.302;10.128;2023-04-24T14:03:41;12.10;;;10.90;;
15706;SDS011;7953;54.302;10.128;2023-04-24T14:06:10;11.73;;;10.53;;
15706;SDS011;7953;54.302;10.128;2023-04-24T14:08:37;11.93;;;10.73;;
15706;SDS011;7953;54.302;10.128;2023-04-24T14:11:04;11.53;;;9.67;;
15706;SDS011;7953;54.302;10.128;2023-04-24T14:13:31;11.27;;;9.73;;
15706;SDS011;7953;54.302;10.128;2023-04-24T14:15:58;9.67;;;8.70;;
15706;SDS011;7953;54.302;10.128;2023-04-24T14:18:25;10.10;;;8.70;;
15706;SDS011;7953;54.302;10.128;2023-04-24T14:20:52;9.93;;;9.03;;
15706;SDS011;7953;54.302;10.128;2023-04-24T14:23:20;9.27;;;8.47;;
15706;SDS011;7953;54.302;10.128;2023-04-24T14:25:47;8.67;;;7.87;;
15706;SDS011;7953;54.302;10.128;2023-04-24T14:28:16;8.70;;;7.80;;
15706;SDS011;7953;54.302;10.128;2023-04-24T14:30:43;8.10;;;7.30;;
15706;SDS011;7953;54.302;10.128;2023-04-24T14:33:10;9.37;;;8.40;;
15706;SDS011;7953;54.302;10.128;2023-04-24T14:35:38;12.30;;;9.30;;
15706;SDS011;7953;54.302;10.128;2023-04-24T14:38:07;11.20;;;8.40;;
15706;SDS011;7953;54.302;10.128;2023-04-24T14:40:35;8.50;;;7.60;;
15706;SDS011;7953;54.302;10.128;2023-04-24T14:43:02;8.23;;;7.50;;
15706;SDS011;7953;54.302;10.128;2023-04-24T14:45:29;12.90;;;11.17;;
15706;SDS011;7953;54.302;10.128;2023-04-24T14:47:56;8.43;;;7.63;;
15706;SDS011;7953;54.302;10.128;2023-04-24T14:50:23;8.67;;;7.37;;
15706;SDS011;7953;54.302;10.128;2023-04-24T14:52:52;8.50;;;7.80;;
15706;SDS011;7953;54.302;10.128;2023-04-24T14:55:19;11.43;;;7.87;;
15706;SDS011;7953;54.302;10.128;2023-04-24T14:57:48;8.40;;;7.60;;
15706;SDS011;7953;54.302;10.128;2023-04-24T15:00:15;8.60;;;7.73;;